sensor_id;sensor_type;location;lat;lon;timestamp;P1;durP1;ratioP1;P2;durP2;ratioP2
5754;SDS011;2902;42.130;24.732;2023-05-10T00:01:46;8.87;;;5.17;;
5754;SDS011;2902;42.130;24.732;2023-05-10T00:04:12;6.47;;;5.80;;
5754;SDS011;2902;42.130;24.732;2023-05-10T00:06:39;7.33;;;5.97;;
5754;SDS011;2902;42.130;24.732;2023-05-10T00:09:06;5.67;;;5.17;;
5754;SDS011;2902;42.130;24.732;2023-05-10T00:11:33;9.13;;;5.63;;
5754;SDS011;2902;42.130;24.732;2023-05-10T00:13:59;6.63;;;5.90;;
5754;SDS011;2902;42.130;24.732;2023-05-10T00:16:27;5.87;;;5.37;;
5754;SDS011;2902;42.130;24.732;2023-05-10T00:18:54;6.60;;;5.90;;
5754;SDS011;2902;42.130;24.732;2023-05-10T00:21:21;8.43;;;5.60;;
5754;SDS011;2902;42.130;24.732;2023-05-10T00:23:48;6.47;;;5.60;;
5754;SDS011;2902;42.130;24.732;2023-05-10T00:26:14;6.50;;;6.00;;
5754;SDS011;2902;42.130;24.732;2023-05-10T00:28:41;6.27;;;5.63;;
5754;SDS011;2902;42.130;24.732;2023-05-10T00:31:08;6.23;;;5.63;;
5754;SDS011;2902;42.130;24.732;2023-05-10T00:33:36;6.63;;;6.03;;
5754;SDS011;2902;42.130;24.732;2023-05-10T00:36:03;6.20;;;5.70;;
5754;SDS011;2902;42.130;24.732;2023-05-10T00:38:32;6.97;;;6.23;;
5754;SDS011;2902;42.130;24.732;2023-05-10T00:40:59;9.50;;;5.67;;
5754;SDS011;2902;42.130;24.732;2023-05-10T00:43:26;6.20;;;5.63;;
5754;SDS011;2902;42.130;24.732;2023-05-10T00:45:53;5.70;;;5.30;;
5754;SDS011;2902;42.130;24.732;2023-05-10T00:48:20;9.27;;;5.57;;
5754;SDS011;2902;42.130;24.732;2023-05-10T00:50:49;5.97;;;5.40;;
5754;SDS011;2902;42.130;24.732;2023-05-10T00:53:16;7.90;;;5.73;;
5754;SDS011;2902;42.130;24.732;2023-05-10T00:55:43;6.63;;;6.03;;
5754;SDS011;2902;42.130;24.732;2023-05-10T00:58:10;7.57;;;5.57;;
5754;SDS011;2902;42.130;24.732;2023-05-10T01:00:38;6.30;;;5.83;;
5754;SDS011;2902;42.130;24.732;2023-05-10T01:03:08;6.33;;;5.83;;
5754;SDS011;2902;42.130;24.732;2023-05-10T01:05:36;9.33;;;6.43;;
5754;SDS011;2902;42.130;24.732;2023-05-10T01:08:04;7.63;;;5.50;;
5754;SDS011;2902;42.130;24.732;2023-05-10T01:10:31;7.33;;;6.03;;
5754;SDS011;2902;42.130;24.732;2023-05-10T01:12:58;6.97;;;5.93;;
5754;SDS011;2902;42.130;24.732;2023-05-10T01:15:25;6.27;;;5.70;;
5754;SDS011;2902;42.130;24.732;2023-05-10T01:17:53;6.60;;;5.97;;
5754;SDS011;2902;42.130;24.732;2023-05-10T01:20:20;7.77;;;5.93;;
5754;SDS011;2902;42.130;24.732;2023-05-10T01:22:51;6.80;;;5.43;;
5754;SDS011;2902;42.130;24.732;2023-05-10T01:25:54;8.80;;;6.03;;
5754;SDS011;2902;42.130;24.732;2023-05-10T01:31:30;8.13;;;6.43;;
5754;SDS011;2902;42.130;24.732;2023-05-10T01:34:11;7.80;;;5.83;;
5754;SDS011;2902;42.130;24.732;2023-05-10T01:36:43;6.97;;;6.47;;
5754;SDS011;2902;42.130;24.732;2023-05-10T01:39:15;7.23;;;6.83;;
5754;SDS011;2902;42.130;24.732;2023-05-10T01:41:48;11.47;;;7.77;;
5754;SDS011;2902;42.130;24.732;2023-05-10T01:44:20;11.93;;;8.00;;
5754;SDS011;2902;42.130;24.732;2023-05-10T01:46:57;10.10;;;8.37;;
5754;SDS011;2902;42.130;24.732;2023-05-10T01:49:32;9.27;;;7.73;;
5754;SDS011;2902;42.130;24.732;2023-05-10T01:52:04;8.87;;;8.17;;
5754;SDS011;2902;42.130;24.732;2023-05-10T01:54:34;8.43;;;7.53;;
5754;SDS011;2902;42.130;24.732;2023-05-10T01:57:05;8.67;;;8.10;;
5754;SDS011;2902;42.130;24.732;2023-05-10T01:59:35;10.03;;;8.30;;
5754;SDS011;2902;42.130;24.732;2023-05-10T02:02:05;11.53;;;8.83;;
5754;SDS011;2902;42.130;24.732;2023-05-10T02:04:38;9.20;;;8.40;;
5754;SDS011;2902;42.130;24.732;2023-05-10T02:07:06;9.53;;;8.63;;
5754;SDS011;2902;42.130;24.732;2023-05-10T02:09:34;8.57;;;7.87;;
5754;SDS011;2902;42.130;24.732;2023-05-10T02:12:01;10.50;;;8.30;;
5754;SDS011;2902;42.130;24.732;2023-05-10T02:14:30;11.13;;;8.03;;
5754;SDS011;2902;42.130;24.732;2023-05-10T02:17:00;9.27;;;8.33;;
5754;SDS011;2902;42.130;24.732;2023-05-10T02:19:30;9.20;;;8.00;;
5754;SDS011;2902;42.130;24.732;2023-05-10T02:21:59;8.73;;;8.03;;
5754;SDS011;2902;42.130;24.732;2023-05-10T02:24:28;12.20;;;8.80;;
5754;SDS011;2902;42.130;24.732;2023-05-10T02:26:55;9.57;;;8.57;;
5754;SDS011;2902;42.130;24.732;2023-05-10T02:29:23;11.93;;;8.60;;
5754;SDS011;2902;42.130;24.732;2023-05-10T02:31:53;9.63;;;8.70;;
5754;SDS011;2902;42.130;24.732;2023-05-10T02:34:21;8.70;;;7.97;;
5754;SDS011;2902;42.130;24.732;2023-05-10T02:36:49;9.00;;;8.30;;
5754;SDS011;2902;42.130;24.732;2023-05-10T02:39:20;9.53;;;8.57;;
5754;SDS011;2902;42.130;24.732;2023-05-10T02:41:47;11.03;;;7.77;;
5754;SDS011;2902;42.130;24.732;2023-05-10T02:44:17;8.63;;;7.80;;
5754;SDS011;2902;42.130;24.732;2023-05-10T02:46:45;11.70;;;8.20;;
5754;SDS011;2902;42.130;24.732;2023-05-10T02:49:13;9.37;;;8.53;;
5754;SDS011;2902;42.130;24.732;2023-05-10T02:51:40;10.40;;;7.60;;
5754;SDS011;2902;42.130;24.732;2023-05-10T02:54:10;8.67;;;8.00;;
5754;SDS011;2902;42.130;24.732;2023-05-10T02:56:42;11.40;;;7.57;;
5754;SDS011;2902;42.130;24.732;2023-05-10T02:59:12;10.03;;;8.50;;
5754;SDS011;2902;42.130;24.732;2023-05-10T03:01:39;10.20;;;7.73;;
5754;SDS011;2902;42.130;24.732;2023-05-10T03:04:06;8.67;;;7.83;;
5754;SDS011;2902;42.130;24.732;2023-05-10T03:06:32;10.20;;;9.20;;
5754;SDS011;2902;42.130;24.732;2023-05-10T03:08:59;8.77;;;7.33;;
5754;SDS011;2902;42.130;24.732;2023-05-10T03:11:34;10.30;;;8.27;;
5754;SDS011;2902;42.130;24.732;2023-05-10T03:14:13;8.83;;;8.03;;
5754;SDS011;2902;42.130;24.732;2023-05-10T03:16:52;9.43;;;7.17;;
5754;SDS011;2902;42.130;24.732;2023-05-10T03:19:24;9.13;;;7.00;;
5754;SDS011;2902;42.130;24.732;2023-05-10T03:21:57;11.87;;;7.70;;
5754;SDS011;2902;42.130;24.732;2023-05-10T03:24:28;13.93;;;10.17;;
5754;SDS011;2902;42.130;24.732;2023-05-10T03:26:57;11.37;;;7.17;;
5754;SDS011;2902;42.130;24.732;2023-05-10T03:29:29;17.20;;;9.23;;
5754;SDS011;2902;42.130;24.732;2023-05-10T03:31:57;17.00;;;8.47;;
5754;SDS011;2902;42.130;24.732;2023-05-10T03:34:25;8.10;;;7.30;;
5754;SDS011;2902;42.130;24.732;2023-05-10T03:36:52;8.93;;;7.30;;
5754;SDS011;2902;42.130;24.732;2023-05-10T03:39:18;8.47;;;7.63;;
5754;SDS011;2902;42.130;24.732;2023-05-10T03:41:46;7.70;;;7.07;;
5754;SDS011;2902;42.130;24.732;2023-05-10T03:44:13;7.93;;;7.00;;
5754;SDS011;2902;42.130;24.732;2023-05-10T03:46:41;7.57;;;6.87;;
5754;SDS011;2902;42.130;24.732;2023-05-10T03:49:07;9.23;;;7.77;;
5754;SDS011;2902;42.130;24.732;2023-05-10T03:51:34;7.47;;;6.77;;
5754;SDS011;2902;42.130;24.732;2023-05-10T03:54:01;13.37;;;7.07;;
5754;SDS011;2902;42.130;24.732;2023-05-10T03:56:27;8.33;;;7.37;;
5754;SDS011;2902;42.130;24.732;2023-05-10T03:58:55;8.93;;;8.00;;
5754;SDS011;2902;42.130;24.732;2023-05-10T04:01:21;13.43;;;7.90;;
5754;SDS011;2902;42.130;24.732;2023-05-10T04:03:49;13.27;;;8.67;;
5754;SDS011;2902;42.130;24.732;2023-05-10T04:06:16;11.13;;;7.57;;
5754;SDS011;2902;42.130;24.732;2023-05-10T04:08:43;10.77;;;7.60;;
5754;SDS011;2902;42.130;24.732;2023-05-10T04:11:11;23.80;;;7.13;;
5754;SDS011;2902;42.130;24.732;2023-05-10T04:13:39;16.40;;;8.97;;
5754;SDS011;2902;42.130;24.732;2023-05-10T04:16:05;9.77;;;7.40;;
5754;SDS011;2902;42.130;24.732;2023-05-10T04:18:32;8.07;;;7.37;;
5754;SDS011;2902;42.130;24.732;2023-05-10T04:21:00;7.90;;;7.10;;
5754;SDS011;2902;42.130;24.732;2023-05-10T04:23:27;8.07;;;7.40;;
5754;SDS011;2902;42.130;24.732;2023-05-10T04:25:58;9.03;;;8.00;;
5754;SDS011;2902;42.130;24.732;2023-05-10T04:28:26;9.60;;;6.87;;
5754;SDS011;2902;42.130;24.732;2023-05-10T04:30:52;9.33;;;6.63;;
5754;SDS011;2902;42.130;24.732;2023-05-10T04:33:19;7.77;;;6.80;;
5754;SDS011;2902;42.130;24.732;2023-05-10T04:35:46;12.80;;;7.33;;
5754;SDS011;2902;42.130;24.732;2023-05-10T04:38:14;10.07;;;7.60;;
5754;SDS011;2902;42.130;24.732;2023-05-10T04:40:41;7.73;;;7.20;;
5754;SDS011;2902;42.130;24.732;2023-05-10T04:43:08;7.57;;;6.80;;
5754;SDS011;2902;42.130;24.732;2023-05-10T04:45:34;9.40;;;6.50;;
5754;SDS011;2902;42.130;24.732;2023-05-10T04:48:01;11.47;;;6.83;;
5754;SDS011;2902;42.130;24.732;2023-05-10T04:50:28;8.07;;;7.23;;
5754;SDS011;2902;42.130;24.732;2023-05-10T04:52:54;8.67;;;7.10;;
5754;SDS011;2902;42.130;24.732;2023-05-10T04:55:22;7.77;;;6.97;;
5754;SDS011;2902;42.130;24.732;2023-05-10T04:57:49;9.07;;;6.40;;
5754;SDS011;2902;42.130;24.732;2023-05-10T05:00:16;8.07;;;6.70;;
5754;SDS011;2902;42.130;24.732;2023-05-10T05:02:43;10.47;;;6.67;;
5754;SDS011;2902;42.130;24.732;2023-05-10T05:05:10;7.53;;;6.13;;
5754;SDS011;2902;42.130;24.732;2023-05-10T05:07:37;7.30;;;6.70;;
5754;SDS011;2902;42.130;24.732;2023-05-10T05:10:04;11.50;;;7.00;;
5754;SDS011;2902;42.130;24.732;2023-05-10T05:12:33;9.37;;;6.73;;
5754;SDS011;2902;42.130;24.732;2023-05-10T05:15:00;6.80;;;6.40;;
5754;SDS011;2902;42.130;24.732;2023-05-10T05:17:26;7.00;;;6.30;;
5754;SDS011;2902;42.130;24.732;2023-05-10T05:19:53;11.70;;;6.93;;
5754;SDS011;2902;42.130;24.732;2023-05-10T05:22:20;6.73;;;6.20;;
5754;SDS011;2902;42.130;24.732;2023-05-10T05:24:52;8.10;;;5.90;;
5754;SDS011;2902;42.130;24.732;2023-05-10T05:27:19;10.67;;;6.10;;
5754;SDS011;2902;42.130;24.732;2023-05-10T05:29:48;8.83;;;6.73;;
5754;SDS011;2902;42.130;24.732;2023-05-10T05:32:15;7.10;;;6.37;;
5754;SDS011;2902;42.130;24.732;2023-05-10T05:34:43;8.10;;;7.23;;
5754;SDS011;2902;42.130;24.732;2023-05-10T05:37:12;10.27;;;7.43;;
5754;SDS011;2902;42.130;24.732;2023-05-10T05:39:39;8.17;;;7.37;;
5754;SDS011;2902;42.130;24.732;2023-05-10T05:42:06;8.80;;;7.57;;
5754;SDS011;2902;42.130;24.732;2023-05-10T05:44:32;7.90;;;7.23;;
5754;SDS011;2902;42.130;24.732;2023-05-10T05:47:00;12.70;;;7.53;;
5754;SDS011;2902;42.130;24.732;2023-05-10T05:49:27;8.80;;;6.63;;
5754;SDS011;2902;42.130;24.732;2023-05-10T05:51:54;14.67;;;7.70;;
5754;SDS011;2902;42.130;24.732;2023-05-10T05:54:21;14.57;;;9.23;;
5754;SDS011;2902;42.130;24.732;2023-05-10T05:56:47;10.53;;;9.50;;
5754;SDS011;2902;42.130;24.732;2023-05-10T05:59:14;14.27;;;9.57;;
5754;SDS011;2902;42.130;24.732;2023-05-10T06:01:41;12.50;;;9.23;;
5754;SDS011;2902;42.130;24.732;2023-05-10T06:04:09;13.53;;;10.10;;
5754;SDS011;2902;42.130;24.732;2023-05-10T06:06:35;10.37;;;9.47;;
5754;SDS011;2902;42.130;24.732;2023-05-10T06:09:02;8.73;;;8.00;;
5754;SDS011;2902;42.130;24.732;2023-05-10T06:11:29;9.97;;;7.40;;
5754;SDS011;2902;42.130;24.732;2023-05-10T06:13:57;14.67;;;7.63;;
5754;SDS011;2902;42.130;24.732;2023-05-10T06:16:24;9.07;;;7.17;;
5754;SDS011;2902;42.130;24.732;2023-05-10T06:18:51;7.63;;;6.90;;
5754;SDS011;2902;42.130;24.732;2023-05-10T06:21:19;8.30;;;7.57;;
5754;SDS011;2902;42.130;24.732;2023-05-10T06:23:46;8.73;;;8.03;;
5754;SDS011;2902;42.130;24.732;2023-05-10T06:26:12;8.70;;;7.40;;
5754;SDS011;2902;42.130;24.732;2023-05-10T06:28:39;7.70;;;6.93;;
5754;SDS011;2902;42.130;24.732;2023-05-10T06:31:06;8.03;;;6.73;;
5754;SDS011;2902;42.130;24.732;2023-05-10T06:33:33;8.03;;;7.37;;
5754;SDS011;2902;42.130;24.732;2023-05-10T06:36:00;7.97;;;7.17;;
5754;SDS011;2902;42.130;24.732;2023-05-10T06:38:28;13.97;;;6.60;;
5754;SDS011;2902;42.130;24.732;2023-05-10T06:40:55;7.70;;;6.70;;
5754;SDS011;2902;42.130;24.732;2023-05-10T06:43:22;7.30;;;6.10;;
5754;SDS011;2902;42.130;24.732;2023-05-10T06:45:49;8.30;;;6.13;;
5754;SDS011;2902;42.130;24.732;2023-05-10T06:48:16;10.20;;;5.83;;
5754;SDS011;2902;42.130;24.732;2023-05-10T06:50:43;6.23;;;5.63;;
5754;SDS011;2902;42.130;24.732;2023-05-10T06:53:10;5.90;;;5.20;;
5754;SDS011;2902;42.130;24.732;2023-05-10T06:55:39;6.13;;;5.73;;
5754;SDS011;2902;42.130;24.732;2023-05-10T06:58:06;8.23;;;6.17;;
5754;SDS011;2902;42.130;24.732;2023-05-10T07:00:33;11.17;;;5.53;;
5754;SDS011;2902;42.130;24.732;2023-05-10T07:02:59;5.13;;;4.83;;
5754;SDS011;2902;42.130;24.732;2023-05-10T07:05:26;5.60;;;5.07;;
5754;SDS011;2902;42.130;24.732;2023-05-10T07:07:54;4.90;;;4.50;;
5754;SDS011;2902;42.130;24.732;2023-05-10T07:10:21;6.53;;;5.10;;
5754;SDS011;2902;42.130;24.732;2023-05-10T07:12:49;6.67;;;6.00;;
5754;SDS011;2902;42.130;24.732;2023-05-10T07:15:16;5.27;;;4.53;;
5754;SDS011;2902;42.130;24.732;2023-05-10T07:17:43;5.30;;;4.90;;
5754;SDS011;2902;42.130;24.732;2023-05-10T07:20:10;4.87;;;4.53;;
5754;SDS011;2902;42.130;24.732;2023-05-10T07:22:38;7.13;;;4.93;;
5754;SDS011;2902;42.130;24.732;2023-05-10T07:25:05;7.37;;;4.77;;
5754;SDS011;2902;42.130;24.732;2023-05-10T07:27:32;4.73;;;4.43;;
5754;SDS011;2902;42.130;24.732;2023-05-10T07:30:00;6.03;;;4.07;;
5754;SDS011;2902;42.130;24.732;2023-05-10T07:32:27;5.33;;;4.83;;
5754;SDS011;2902;42.130;24.732;2023-05-10T07:34:54;4.83;;;4.27;;
5754;SDS011;2902;42.130;24.732;2023-05-10T07:37:21;5.13;;;4.70;;
5754;SDS011;2902;42.130;24.732;2023-05-10T07:39:47;6.03;;;4.80;;
5754;SDS011;2902;42.130;24.732;2023-05-10T07:42:14;6.60;;;4.87;;
5754;SDS011;2902;42.130;24.732;2023-05-10T07:44:41;6.60;;;4.77;;
5754;SDS011;2902;42.130;24.732;2023-05-10T07:47:09;6.17;;;4.17;;
5754;SDS011;2902;42.130;24.732;2023-05-10T07:49:36;5.07;;;4.37;;
5754;SDS011;2902;42.130;24.732;2023-05-10T07:52:03;4.57;;;4.27;;
5754;SDS011;2902;42.130;24.732;2023-05-10T07:54:30;5.70;;;4.40;;
5754;SDS011;2902;42.130;24.732;2023-05-10T07:56:57;4.77;;;4.37;;
5754;SDS011;2902;42.130;24.732;2023-05-10T07:59:24;11.83;;;4.37;;
5754;SDS011;2902;42.130;24.732;2023-05-10T08:01:51;3.93;;;3.63;;
5754;SDS011;2902;42.130;24.732;2023-05-10T08:04:19;9.73;;;4.00;;
5754;SDS011;2902;42.130;24.732;2023-05-10T08:06:46;4.53;;;4.20;;
5754;SDS011;2902;42.130;24.732;2023-05-10T08:09:13;6.83;;;4.30;;
5754;SDS011;2902;42.130;24.732;2023-05-10T08:11:39;7.07;;;4.23;;
5754;SDS011;2902;42.130;24.732;2023-05-10T08:14:06;5.73;;;3.60;;
5754;SDS011;2902;42.130;24.732;2023-05-10T08:16:33;8.33;;;4.20;;
5754;SDS011;2902;42.130;24.732;2023-05-10T08:19:00;5.03;;;4.57;;
5754;SDS011;2902;42.130;24.732;2023-05-10T08:21:28;4.43;;;4.10;;
5754;SDS011;2902;42.130;24.732;2023-05-10T08:23:56;4.50;;;4.03;;
5754;SDS011;2902;42.130;24.732;2023-05-10T08:26:23;4.50;;;4.20;;
5754;SDS011;2902;42.130;24.732;2023-05-10T08:28:49;4.67;;;3.97;;
5754;SDS011;2902;42.130;24.732;2023-05-10T08:31:16;4.73;;;3.77;;
5754;SDS011;2902;42.130;24.732;2023-05-10T08:33:43;3.70;;;3.47;;
5754;SDS011;2902;42.130;24.732;2023-05-10T08:36:10;3.93;;;3.73;;
5754;SDS011;2902;42.130;24.732;2023-05-10T08:38:40;9.80;;;4.07;;
5754;SDS011;2902;42.130;24.732;2023-05-10T08:41:07;4.07;;;3.53;;
5754;SDS011;2902;42.130;24.732;2023-05-10T08:43:34;4.10;;;3.73;;
5754;SDS011;2902;42.130;24.732;2023-05-10T08:46:02;4.53;;;3.83;;
5754;SDS011;2902;42.130;24.732;2023-05-10T08:48:31;3.90;;;3.03;;
5754;SDS011;2902;42.130;24.732;2023-05-10T08:51:01;3.77;;;3.47;;
5754;SDS011;2902;42.130;24.732;2023-05-10T08:53:30;3.83;;;3.63;;
5754;SDS011;2902;42.130;24.732;2023-05-10T08:56:01;3.63;;;3.33;;
5754;SDS011;2902;42.130;24.732;2023-05-10T08:58:28;6.70;;;3.80;;
5754;SDS011;2902;42.130;24.732;2023-05-10T09:00:55;7.80;;;4.17;;
5754;SDS011;2902;42.130;24.732;2023-05-10T09:03:24;7.13;;;4.07;;
5754;SDS011;2902;42.130;24.732;2023-05-10T09:05:51;4.30;;;4.07;;
5754;SDS011;2902;42.130;24.732;2023-05-10T09:08:18;5.73;;;4.27;;
5754;SDS011;2902;42.130;24.732;2023-05-10T09:10:46;6.03;;;4.67;;
5754;SDS011;2902;42.130;24.732;2023-05-10T09:13:15;7.13;;;4.30;;
5754;SDS011;2902;42.130;24.732;2023-05-10T09:15:44;4.70;;;4.13;;
5754;SDS011;2902;42.130;24.732;2023-05-10T09:18:11;5.20;;;3.57;;
5754;SDS011;2902;42.130;24.732;2023-05-10T09:20:38;9.43;;;4.37;;
5754;SDS011;2902;42.130;24.732;2023-05-10T09:23:05;6.03;;;4.90;;
5754;SDS011;2902;42.130;24.732;2023-05-10T09:25:32;7.40;;;4.40;;
5754;SDS011;2902;42.130;24.732;2023-05-10T09:27:59;5.30;;;4.80;;
5754;SDS011;2902;42.130;24.732;2023-05-10T09:30:28;4.70;;;4.10;;
5754;SDS011;2902;42.130;24.732;2023-05-10T09:32:55;4.80;;;4.37;;
5754;SDS011;2902;42.130;24.732;2023-05-10T09:35:24;4.67;;;4.30;;
5754;SDS011;2902;42.130;24.732;2023-05-10T09:37:52;5.70;;;3.40;;
5754;SDS011;2902;42.130;24.732;2023-05-10T09:40:20;4.00;;;3.80;;
5754;SDS011;2902;42.130;24.732;2023-05-10T09:42:51;6.40;;;3.83;;
5754;SDS011;2902;42.130;24.732;2023-05-10T09:45:20;7.67;;;3.97;;
5754;SDS011;2902;42.130;24.732;2023-05-10T09:47:49;4.03;;;3.63;;
5754;SDS011;2902;42.130;24.732;2023-05-10T09:50:16;5.70;;;4.30;;
5754;SDS011;2902;42.130;24.732;2023-05-10T09:52:46;6.30;;;4.30;;
5754;SDS011;2902;42.130;24.732;2023-05-10T09:55:15;4.07;;;3.83;;
5754;SDS011;2902;42.130;24.732;2023-05-10T09:57:45;4.20;;;3.90;;
5754;SDS011;2902;42.130;24.732;2023-05-10T10:00:16;4.93;;;4.17;;
5754;SDS011;2902;42.130;24.732;2023-05-10T10:02:45;3.97;;;3.67;;
5754;SDS011;2902;42.130;24.732;2023-05-10T10:05:14;6.17;;;4.40;;
5754;SDS011;2902;42.130;24.732;2023-05-10T10:07:41;6.63;;;3.90;;
5754;SDS011;2902;42.130;24.732;2023-05-10T10:10:08;4.10;;;3.80;;
5754;SDS011;2902;42.130;24.732;2023-05-10T10:12:38;6.73;;;4.03;;
5754;SDS011;2902;42.130;24.732;2023-05-10T10:15:07;4.37;;;3.67;;
5754;SDS011;2902;42.130;24.732;2023-05-10T10:17:35;5.63;;;3.80;;
5754;SDS011;2902;42.130;24.732;2023-05-10T10:20:04;6.57;;;3.57;;
5754;SDS011;2902;42.130;24.732;2023-05-10T10:22:33;4.03;;;3.73;;
5754;SDS011;2902;42.130;24.732;2023-05-10T10:25:00;3.57;;;3.37;;
5754;SDS011;2902;42.130;24.732;2023-05-10T10:27:28;4.67;;;4.20;;
5754;SDS011;2902;42.130;24.732;2023-05-10T10:30:10;3.97;;;3.67;;
5754;SDS011;2902;42.130;24.732;2023-05-10T10:35:39;3.73;;;3.43;;
5754;SDS011;2902;42.130;24.732;2023-05-10T10:38:08;4.10;;;3.90;;
5754;SDS011;2902;42.130;24.732;2023-05-10T10:40:35;4.97;;;3.67;;
5754;SDS011;2902;42.130;24.732;2023-05-10T10:43:21;4.20;;;4.00;;
5754;SDS011;2902;42.130;24.732;2023-05-10T10:48:38;4.60;;;4.27;;
5754;SDS011;2902;42.130;24.732;2023-05-10T10:51:05;4.27;;;4.07;;
5754;SDS011;2902;42.130;24.732;2023-05-10T10:53:33;6.23;;;3.57;;
5754;SDS011;2902;42.130;24.732;2023-05-10T10:56:06;6.43;;;4.40;;
5754;SDS011;2902;42.130;24.732;2023-05-10T10:58:34;5.40;;;3.70;;
5754;SDS011;2902;42.130;24.732;2023-05-10T11:01:11;4.03;;;3.73;;
5754;SDS011;2902;42.130;24.732;2023-05-10T11:03:39;5.37;;;3.63;;
5754;SDS011;2902;42.130;24.732;2023-05-10T11:06:06;4.63;;;4.20;;
5754;SDS011;2902;42.130;24.732;2023-05-10T11:08:41;3.93;;;3.63;;
5754;SDS011;2902;42.130;24.732;2023-05-10T11:11:10;3.73;;;3.53;;
5754;SDS011;2902;42.130;24.732;2023-05-10T11:13:41;5.27;;;4.53;;
5754;SDS011;2902;42.130;24.732;2023-05-10T11:16:10;4.37;;;4.10;;
5754;SDS011;2902;42.130;24.732;2023-05-10T11:18:38;4.67;;;3.80;;
5754;SDS011;2902;42.130;24.732;2023-05-10T11:21:05;10.77;;;4.13;;
5754;SDS011;2902;42.130;24.732;2023-05-10T11:23:49;7.90;;;3.80;;
5754;SDS011;2902;42.130;24.732;2023-05-10T11:26:17;10.30;;;4.10;;
5754;SDS011;2902;42.130;24.732;2023-05-10T11:28:48;5.27;;;3.50;;
5754;SDS011;2902;42.130;24.732;2023-05-10T11:31:15;4.73;;;3.80;;
5754;SDS011;2902;42.130;24.732;2023-05-10T11:33:43;4.60;;;3.70;;
5754;SDS011;2902;42.130;24.732;2023-05-10T11:36:11;3.90;;;3.27;;
5754;SDS011;2902;42.130;24.732;2023-05-10T11:38:38;4.57;;;4.27;;
5754;SDS011;2902;42.130;24.732;2023-05-10T11:41:06;4.53;;;3.60;;
5754;SDS011;2902;42.130;24.732;2023-05-10T11:43:35;3.40;;;3.20;;
5754;SDS011;2902;42.130;24.732;2023-05-10T11:46:03;6.63;;;3.90;;
5754;SDS011;2902;42.130;24.732;2023-05-10T11:48:30;6.10;;;3.60;;
5754;SDS011;2902;42.130;24.732;2023-05-10T11:50:57;4.47;;;3.30;;
5754;SDS011;2902;42.130;24.732;2023-05-10T11:53:25;3.10;;;2.90;;
5754;SDS011;2902;42.130;24.732;2023-05-10T11:55:53;4.17;;;3.37;;
5754;SDS011;2902;42.130;24.732;2023-05-10T11:58:21;6.50;;;4.27;;
5754;SDS011;2902;42.130;24.732;2023-05-10T12:00:49;3.70;;;3.23;;
5754;SDS011;2902;42.130;24.732;2023-05-10T12:03:16;4.77;;;3.97;;
5754;SDS011;2902;42.130;24.732;2023-05-10T12:05:43;5.33;;;3.90;;
5754;SDS011;2902;42.130;24.732;2023-05-10T12:08:10;4.30;;;4.00;;
5754;SDS011;2902;42.130;24.732;2023-05-10T12:10:37;6.43;;;3.87;;
5754;SDS011;2902;42.130;24.732;2023-05-10T12:13:04;4.20;;;3.87;;
5754;SDS011;2902;42.130;24.732;2023-05-10T12:15:33;5.87;;;4.30;;
5754;SDS011;2902;42.130;24.732;2023-05-10T12:18:00;6.23;;;4.57;;
5754;SDS011;2902;42.130;24.732;2023-05-10T12:20:27;7.90;;;3.77;;
5754;SDS011;2902;42.130;24.732;2023-05-10T12:22:55;4.30;;;4.10;;
5754;SDS011;2902;42.130;24.732;2023-05-10T12:25:24;4.63;;;4.33;;
5754;SDS011;2902;42.130;24.732;2023-05-10T12:27:56;4.43;;;4.13;;
5754;SDS011;2902;42.130;24.732;2023-05-10T12:30:26;4.63;;;4.40;;
5754;SDS011;2902;42.130;24.732;2023-05-10T12:32:59;5.10;;;4.60;;
5754;SDS011;2902;42.130;24.732;2023-05-10T12:35:28;5.47;;;5.13;;
5754;SDS011;2902;42.130;24.732;2023-05-10T12:37:56;4.83;;;4.63;;
5754;SDS011;2902;42.130;24.732;2023-05-10T12:40:23;5.60;;;5.20;;
5754;SDS011;2902;42.130;24.732;2023-05-10T12:42:50;6.93;;;6.13;;
5754;SDS011;2902;42.130;24.732;2023-05-10T12:45:17;6.23;;;5.67;;
5754;SDS011;2902;42.130;24.732;2023-05-10T12:47:44;6.17;;;5.67;;
5754;SDS011;2902;42.130;24.732;2023-05-10T12:50:12;6.70;;;6.10;;
5754;SDS011;2902;42.130;24.732;2023-05-10T12:52:39;6.50;;;6.00;;
5754;SDS011;2902;42.130;24.732;2023-05-10T12:55:06;6.90;;;6.03;;
5754;SDS011;2902;42.130;24.732;2023-05-10T12:57:33;6.27;;;5.90;;
5754;SDS011;2902;42.130;24.732;2023-05-10T12:59:59;6.93;;;6.33;;
5754;SDS011;2902;42.130;24.732;2023-05-10T13:02:26;6.37;;;5.87;;
5754;SDS011;2902;42.130;24.732;2023-05-10T13:04:53;6.13;;;5.80;;
5754;SDS011;2902;42.130;24.732;2023-05-10T13:07:21;5.90;;;5.50;;
5754;SDS011;2902;42.130;24.732;2023-05-10T13:09:48;6.63;;;6.10;;
5754;SDS011;2902;42.130;24.732;2023-05-10T13:12:14;6.23;;;5.67;;
5754;SDS011;2902;42.130;24.732;2023-05-10T13:14:41;7.97;;;6.50;;
5754;SDS011;2902;42.130;24.732;2023-05-10T13:17:08;5.07;;;4.77;;
5754;SDS011;2902;42.130;24.732;2023-05-10T13:19:35;6.83;;;6.27;;
5754;SDS011;2902;42.130;24.732;2023-05-10T13:22:02;5.47;;;5.07;;
5754;SDS011;2902;42.130;24.732;2023-05-10T13:24:30;5.90;;;5.50;;
5754;SDS011;2902;42.130;24.732;2023-05-10T13:27:14;5.77;;;5.27;;
5754;SDS011;2902;42.130;24.732;2023-05-10T13:39:13;9.43;;;6.70;;
5754;SDS011;2902;42.130;24.732;2023-05-10T13:40:13;6.97;;;6.40;;
5754;SDS011;2902;42.130;24.732;2023-05-10T13:42:40;6.80;;;6.07;;
5754;SDS011;2902;42.130;24.732;2023-05-10T13:45:07;6.30;;;5.90;;
5754;SDS011;2902;42.130;24.732;2023-05-10T13:47:36;7.37;;;6.70;;
5754;SDS011;2902;42.130;24.732;2023-05-10T13:50:03;6.30;;;5.90;;
5754;SDS011;2902;42.130;24.732;2023-05-10T13:52:31;6.33;;;5.90;;
5754;SDS011;2902;42.130;24.732;2023-05-10T13:54:57;6.40;;;5.90;;
5754;SDS011;2902;42.130;24.732;2023-05-10T13:57:26;7.70;;;7.20;;
5754;SDS011;2902;42.130;24.732;2023-05-10T13:59:53;7.50;;;6.10;;
5754;SDS011;2902;42.130;24.732;2023-05-10T14:02:20;7.40;;;6.80;;
5754;SDS011;2902;42.130;24.732;2023-05-10T14:04:47;7.03;;;6.50;;
5754;SDS011;2902;42.130;24.732;2023-05-10T14:07:14;7.10;;;6.60;;
5754;SDS011;2902;42.130;24.732;2023-05-10T14:09:41;7.20;;;6.43;;
5754;SDS011;2902;42.130;24.732;2023-05-10T14:12:07;8.50;;;6.80;;
5754;SDS011;2902;42.130;24.732;2023-05-10T14:14:35;10.23;;;6.50;;
5754;SDS011;2902;42.130;24.732;2023-05-10T14:17:02;8.00;;;7.30;;
5754;SDS011;2902;42.130;24.732;2023-05-10T14:19:29;7.47;;;6.77;;
5754;SDS011;2902;42.130;24.732;2023-05-10T14:21:57;6.80;;;6.30;;
5754;SDS011;2902;42.130;24.732;2023-05-10T14:24:24;6.83;;;6.17;;
5754;SDS011;2902;42.130;24.732;2023-05-10T14:26:51;6.27;;;5.50;;
5754;SDS011;2902;42.130;24.732;2023-05-10T14:29:18;6.03;;;5.63;;
5754;SDS011;2902;42.130;24.732;2023-05-10T14:31:46;5.73;;;5.40;;
5754;SDS011;2902;42.130;24.732;2023-05-10T14:34:13;6.60;;;5.93;;
5754;SDS011;2902;42.130;24.732;2023-05-10T14:36:40;5.30;;;5.00;;
5754;SDS011;2902;42.130;24.732;2023-05-10T14:39:06;6.47;;;5.87;;
5754;SDS011;2902;42.130;24.732;2023-05-10T14:41:34;6.27;;;5.87;;
5754;SDS011;2902;42.130;24.732;2023-05-10T14:44:02;6.53;;;6.13;;
5754;SDS011;2902;42.130;24.732;2023-05-10T14:46:29;5.30;;;4.90;;
5754;SDS011;2902;42.130;24.732;2023-05-10T14:48:57;5.67;;;5.17;;
5754;SDS011;2902;42.130;24.732;2023-05-10T14:51:24;13.53;;;5.57;;
5754;SDS011;2902;42.130;24.732;2023-05-10T14:53:50;5.27;;;4.97;;
5754;SDS011;2902;42.130;24.732;2023-05-10T14:56:17;4.37;;;4.17;;
5754;SDS011;2902;42.130;24.732;2023-05-10T14:58:45;9.17;;;6.10;;
5754;SDS011;2902;42.130;24.732;2023-05-10T15:01:12;5.97;;;5.40;;
5754;SDS011;2902;42.130;24.732;2023-05-10T15:03:39;5.90;;;5.40;;
5754;SDS011;2902;42.130;24.732;2023-05-10T15:06:07;6.03;;;5.47;;
5754;SDS011;2902;42.130;24.732;2023-05-10T15:08:34;5.60;;;5.20;;
5754;SDS011;2902;42.130;24.732;2023-05-10T15:11:01;4.90;;;4.47;;
5754;SDS011;2902;42.130;24.732;2023-05-10T15:13:28;10.30;;;6.10;;
5754;SDS011;2902;42.130;24.732;2023-05-10T15:15:54;11.87;;;9.73;;
5754;SDS011;2902;42.130;24.732;2023-05-10T15:18:21;5.20;;;4.67;;
5754;SDS011;2902;42.130;24.732;2023-05-10T15:20:48;6.80;;;6.37;;
5754;SDS011;2902;42.130;24.732;2023-05-10T15:23:16;6.07;;;5.43;;